Faisalabad Weather



Faisalabad's Current Weather

Temprature 44.262o clear sky

clear sky

Rain: 0 %

Min Temprature44.262o
Max Temprature44.262o
Humidity14
Wind Speed1.39 m/h
Sun Rise05:04:38
Sun Set19:15:55
Current Time: 26-Jun-2019 14:49:30
Lat/Lon: 31.42, 73.09




Faisalabad's Geo Location



Faisalabad's Weather Forecast

Time Overall Temp Min Temp Max Temp Humidity Wind Speed Rain
26-Jun-2019 (Wed)
17:00:00 scattered clouds 43.550 43.550 43.550 15 3.69 m/h 0 %
20:00:00 few clouds 39.950 39.947 39.950 19 2.21 m/h 0 %
23:00:00 clear sky 37.440 37.440 37.440 22 0.55 m/h 0 %
27-Jun-2019 (Thu)
02:00:00 clear sky 35.880 35.879 35.880 25 2.28 m/h 0 %
05:00:00 clear sky 34.365 34.365 34.365 27 2.53 m/h 0 %
08:00:00 light rain 39.250 39.250 39.250 20 2.2 m/h 6 %
11:00:00 light rain 44.274 44.274 44.274 14 0.92 m/h 6 %
14:00:00 clear sky 46.450 46.450 46.450 11 1.29 m/h 0 %
17:00:00 scattered clouds 45.880 45.880 45.880 9 3.6 m/h 0 %
20:00:00 scattered clouds 39.494 39.494 39.494 19 7.32 m/h 0 %
23:00:00 few clouds 37.735 37.735 37.735 21 4.64 m/h 0 %
28-Jun-2019 (Fri)
02:00:00 clear sky 35.928 35.928 35.928 24 3.06 m/h 0 %
05:00:00 clear sky 35.328 35.328 35.328 26 3.57 m/h 0 %
08:00:00 clear sky 38.649 38.649 38.649 27 5 m/h 0 %
11:00:00 scattered clouds 44.125 44.125 44.125 17 4.77 m/h 0 %
14:00:00 clear sky 46.731 46.731 46.731 12 4.42 m/h 0 %
17:00:00 clear sky 46.250 46.250 46.250 12 6.16 m/h 0 %
20:00:00 clear sky 38.250 38.250 38.250 22 6.13 m/h 0 %
23:00:00 clear sky 37.572 37.572 37.572 24 3.17 m/h 0 %
29-Jun-2019 (Sat)
02:00:00 clear sky 37.172 37.172 37.172 24 4.3 m/h 0 %
05:00:00 clear sky 35.829 35.829 35.829 28 4.77 m/h 0 %
08:00:00 clear sky 38.347 38.347 38.347 29 6.34 m/h 0 %
11:00:00 clear sky 44.350 44.350 44.350 16 5.54 m/h 0 %
14:00:00 clear sky 47.450 47.450 47.450 10 5.69 m/h 0 %
17:00:00 clear sky 46.891 46.891 46.891 10 5.36 m/h 0 %
20:00:00 clear sky 42.350 42.350 42.350 14 4.17 m/h 0 %
23:00:00 clear sky 39.750 39.750 39.750 17 6.04 m/h 0 %
30-Jun-2019 (Sun)
02:00:00 clear sky 37.816 37.816 37.816 22 6 m/h 0 %
05:00:00 clear sky 35.852 35.852 35.852 27 5.3 m/h 0 %
08:00:00 clear sky 38.472 38.472 38.472 32 4.78 m/h 0 %
11:00:00 clear sky 44.718 44.718 44.718 17 4.97 m/h 0 %
14:00:00 clear sky 47.808 47.808 47.808 11 5.19 m/h 0 %
17:00:00 clear sky 46.850 46.850 46.850 11 6.13 m/h 0 %
20:00:00 clear sky 42.550 42.550 42.550 15 2.89 m/h 0 %
23:00:00 clear sky 39.850 39.850 39.850 19 5.55 m/h 0 %
01-Jul-2019 (Mon)
02:00:00 clear sky 38.250 38.250 38.250 20 5.28 m/h 0 %
05:00:00 clear sky 36.635 36.635 36.635 24 6.27 m/h 0 %
08:00:00 clear sky 38.450 38.450 38.450 35 7.1 m/h 0 %
11:00:00 clear sky 44.250 44.250 44.250 21 4.74 m/h 0 %
14:00:00 clear sky 48.350 48.350 48.350 11 3.84 m/h 0 %


Faisalabad's Tourist Spots

Parks and Zoos in Faisalabad

Famous Cities (60)